createdAt,value
2019-03-29T00:03:09.156Z,97000.00
2019-03-29T00:08:38.840Z,97007.00
2019-03-29T00:14:08.739Z,97005.00
2019-03-29T00:19:38.521Z,96993.00
2019-03-29T00:25:08.085Z,97005.00
2019-03-29T00:30:37.675Z,97001.00
2019-03-29T00:36:07.101Z,96987.00
2019-03-29T00:41:36.575Z,96978.00
2019-03-29T00:47:06.438Z,96973.00
2019-03-29T00:52:36.177Z,96965.00
2019-03-29T00:58:05.852Z,96969.00
2019-03-29T01:03:36.971Z,96970.00
2019-03-29T01:09:06.845Z,96968.00
2019-03-29T01:14:36.418Z,96957.00
2019-03-29T01:20:09.875Z,96963.00
2019-03-29T01:25:39.304Z,96948.00
2019-03-29T01:31:08.731Z,96945.00
2019-03-29T01:36:38.042Z,96943.00
2019-03-29T01:42:07.595Z,96944.00
2019-03-29T01:47:37.222Z,96935.00
2019-03-29T01:53:06.777Z,96933.00
2019-03-29T01:58:36.538Z,96928.00
2019-03-29T02:04:08.071Z,96926.00
2019-03-29T02:09:37.977Z,96924.00
2019-03-29T02:15:09.206Z,96917.00
2019-03-29T02:20:38.756Z,96920.00
2019-03-29T02:26:09.589Z,96912.00
2019-03-29T02:31:42.068Z,96920.00
2019-03-29T02:37:10.407Z,96918.00
2019-03-29T02:42:40.190Z,96912.00
2019-03-29T02:48:10.354Z,96908.00
2019-03-29T02:53:40.291Z,96904.00
2019-03-29T02:59:10.276Z,96905.00
2019-03-29T03:04:39.933Z,96903.00
2019-03-29T03:10:12.365Z,96907.00
2019-03-29T03:15:41.920Z,96922.00
2019-03-29T03:21:11.290Z,96923.00
2019-03-29T03:26:41.732Z,96921.00
2019-03-29T03:32:11.089Z,96909.00
2019-03-29T03:37:40.535Z,96909.00
2019-03-29T03:43:10.086Z,96913.00
2019-03-29T03:48:39.781Z,96914.00
2019-03-29T03:54:09.699Z,96908.00
2019-03-29T03:59:39.633Z,96911.00
2019-03-29T04:05:09.160Z,96909.00
2019-03-29T04:10:42.173Z,96904.00
2019-03-29T04:16:17.457Z,96900.00
2019-03-29T04:21:47.767Z,96893.00
2019-03-29T04:27:17.176Z,96894.00
2019-03-29T04:32:46.555Z,96900.00
2019-03-29T04:38:16.217Z,96896.00
2019-03-29T04:43:45.522Z,96891.00
2019-03-29T04:49:16.549Z,96890.00
2019-03-29T04:54:45.928Z,96890.00
2019-03-29T05:00:15.974Z,96885.00
2019-03-29T05:05:45.368Z,96880.00
2019-03-29T05:11:14.826Z,96883.00
2019-03-29T05:16:44.157Z,96872.00
2019-03-29T05:22:13.558Z,96885.00
2019-03-29T05:27:42.991Z,96885.00
2019-03-29T05:33:12.397Z,96889.00
2019-03-29T05:38:41.781Z,96887.00
2019-03-29T05:44:11.148Z,96893.00
2019-03-29T05:49:40.624Z,96879.00
2019-03-29T05:55:10.236Z,96881.00
2019-03-29T06:00:39.642Z,96878.00
2019-03-29T06:06:09.187Z,96886.00
2019-03-29T06:11:38.608Z,96886.00
2019-03-29T06:17:07.921Z,96883.00
2019-03-29T06:22:37.257Z,96891.00
2019-03-29T06:28:06.832Z,96905.00
2019-03-29T06:33:36.357Z,96903.00
2019-03-29T06:39:07.478Z,96909.00
2019-03-29T06:44:37.004Z,96903.00
2019-03-29T06:50:07.911Z,96916.00
2019-03-29T06:55:37.326Z,96904.00
2019-03-29T07:01:06.710Z,96908.00
2019-03-29T07:06:36.207Z,96901.00
2019-03-29T07:12:05.751Z,96898.00
2019-03-29T07:17:35.170Z,96906.00
2019-03-29T07:23:04.654Z,96902.00
2019-03-29T07:28:34.083Z,96898.00
2019-03-29T07:34:03.659Z,96895.00
2019-03-29T07:39:33.058Z,96885.00
2019-03-29T07:45:02.742Z,96892.00
2019-03-29T07:50:32.344Z,96898.00
2019-03-29T07:56:01.997Z,96895.00
2019-03-29T08:01:32.618Z,96891.00
2019-03-29T08:07:02.083Z,96886.00
2019-03-29T08:12:31.785Z,96893.00
2019-03-29T08:18:01.955Z,96899.00
2019-03-29T08:23:32.925Z,96901.00
2019-03-29T08:29:02.415Z,96891.00
2019-03-29T08:34:32.019Z,96888.00
2019-03-29T08:40:01.482Z,96902.00
2019-03-29T08:45:30.905Z,96888.00
2019-03-29T08:51:00.696Z,96897.00
2019-03-29T08:56:30.122Z,96896.00
2019-03-29T09:01:59.593Z,96893.00
2019-03-29T09:07:29.115Z,96888.00
2019-03-29T09:12:58.661Z,96884.00
2019-03-29T09:18:28.310Z,96887.00
2019-03-29T09:23:57.882Z,96880.00
2019-03-29T09:29:27.489Z,96871.00
2019-03-29T09:34:57.149Z,96878.00
2019-03-29T09:40:26.769Z,96874.00
2019-03-29T09:45:56.369Z,96871.00
2019-03-29T09:51:26.078Z,96871.00
2019-03-29T09:56:55.522Z,96857.00
2019-03-29T10:02:24.960Z,96850.00
2019-03-29T10:07:54.393Z,96853.00
2019-03-29T10:13:23.895Z,96858.00
2019-03-29T10:18:53.313Z,96847.00
2019-03-29T10:24:22.633Z,96840.00
2019-03-29T10:29:52.125Z,96846.00
2019-03-29T10:35:21.494Z,96840.00
2019-03-29T10:40:51.008Z,96830.00
2019-03-29T10:46:21.661Z,96829.00
2019-03-29T10:51:51.018Z,96826.00
2019-03-29T10:57:20.375Z,96818.00
2019-03-29T11:02:49.856Z,96813.00
2019-03-29T11:08:19.394Z,96815.00
2019-03-29T11:13:48.794Z,96814.00
2019-03-29T11:19:18.307Z,96810.00
2019-03-29T11:24:48.277Z,96820.00
2019-03-29T11:30:17.781Z,96813.00
2019-03-29T11:35:47.218Z,96816.00
2019-03-29T11:41:16.576Z,96806.00
2019-03-29T11:46:46.055Z,96798.00
2019-03-29T11:52:15.580Z,96795.00
2019-03-29T11:57:45.125Z,96793.00
2019-03-29T12:03:15.253Z,96787.00
2019-03-29T12:08:44.740Z,96784.00
2019-03-29T12:14:14.201Z,96784.00
2019-03-29T12:19:43.659Z,96783.00
2019-03-29T12:25:13.288Z,96775.00
2019-03-29T12:30:42.847Z,96768.00
2019-03-29T12:36:12.351Z,96768.00
2019-03-29T12:41:41.729Z,96752.00
2019-03-29T12:47:11.143Z,96758.00
2019-03-29T12:52:40.478Z,96756.00
2019-03-29T12:58:09.896Z,96748.00
2019-03-29T13:03:39.649Z,96753.00
2019-03-29T13:09:09.712Z,96751.00
2019-03-29T13:14:39.245Z,96742.00
2019-03-29T13:20:09.227Z,96736.00
2019-03-29T13:25:38.729Z,96729.00
2019-03-29T13:31:08.082Z,96706.00
2019-03-29T13:36:37.467Z,96711.00
2019-03-29T13:42:06.914Z,96702.00
2019-03-29T13:47:37.228Z,96705.00
2019-03-29T13:53:06.548Z,96702.00
2019-03-29T13:58:35.995Z,96665.00
2019-03-29T14:04:05.408Z,96659.00
2019-03-29T14:09:34.844Z,96664.00
2019-03-29T14:15:06.597Z,96664.00
2019-03-29T14:20:36.357Z,96641.00
2019-03-29T14:26:05.896Z,96610.00
2019-03-29T14:31:35.296Z,96597.00
2019-03-29T14:37:04.811Z,96597.00
2019-03-29T14:42:34.261Z,96590.00
2019-03-29T14:48:03.831Z,96595.00
2019-03-29T14:53:33.252Z,96596.00
2019-03-29T14:59:02.732Z,96589.00
2019-03-29T15:04:32.140Z,96589.00
2019-03-29T15:10:02.037Z,96578.00
2019-03-29T15:15:31.542Z,96582.00
2019-03-29T15:21:01.058Z,96607.00
2019-03-29T15:26:30.607Z,96597.00
2019-03-29T15:32:00.266Z,96633.00
2019-03-29T15:37:29.752Z,96622.00
2019-03-29T15:42:59.727Z,96625.00
2019-03-29T15:48:29.514Z,96616.00
2019-03-29T15:53:59.038Z,96596.00
2019-03-29T15:59:29.637Z,96598.00
2019-03-29T16:04:59.291Z,96578.00
2019-03-29T16:10:28.812Z,96569.00
2019-03-29T16:15:58.412Z,96578.00
2019-03-29T16:21:28.552Z,96619.00
2019-03-29T16:26:58.132Z,96622.00
2019-03-29T16:32:27.690Z,96617.00
2019-03-29T16:37:57.827Z,96614.00
2019-03-29T16:43:27.461Z,96603.00
2019-03-29T16:48:57.257Z,96608.00
2019-03-29T16:54:26.823Z,96606.00
2019-03-29T16:59:56.284Z,96610.00
2019-03-29T17:05:25.732Z,96599.00
2019-03-29T17:10:55.230Z,96606.00
2019-03-29T17:16:30.591Z,96601.00
2019-03-29T17:21:56.002Z,96604.00
2019-03-29T17:27:25.578Z,96602.00
2019-03-29T17:32:55.054Z,96603.00
2019-03-29T17:38:24.817Z,96603.00
2019-03-29T17:43:54.293Z,96605.00
2019-03-29T17:49:24.694Z,96600.00
2019-03-29T17:54:57.326Z,96610.00
2019-03-29T18:00:29.272Z,96608.00
2019-03-29T18:05:58.984Z,96616.00
2019-03-29T18:11:28.625Z,96623.00
2019-03-29T18:16:58.262Z,96626.00
2019-03-29T18:22:28.807Z,96628.00
2019-03-29T18:27:58.613Z,96633.00
2019-03-29T18:33:28.817Z,96629.00
2019-03-29T18:38:58.758Z,96628.00
2019-03-29T18:44:28.244Z,96623.00
2019-03-29T18:49:58.271Z,96632.00
2019-03-29T18:55:27.830Z,96625.00
2019-03-29T19:00:57.519Z,96624.00
2019-03-29T19:06:27.076Z,96629.00
2019-03-29T19:11:56.719Z,96628.00
2019-03-29T19:17:26.196Z,96634.00
2019-03-29T19:22:55.799Z,96622.00
2019-03-29T19:28:25.803Z,96623.00
2019-03-29T19:33:56.326Z,96620.00
2019-03-29T19:39:25.837Z,96614.00
2019-03-29T19:44:55.408Z,96610.00
2019-03-29T19:50:25.261Z,96611.00
2019-03-29T19:55:54.867Z,96617.00
2019-03-29T20:01:24.721Z,96609.00
2019-03-29T20:06:54.121Z,96603.00
2019-03-29T20:12:25.275Z,96597.00
2019-03-29T20:17:55.038Z,96605.00
2019-03-29T20:23:24.595Z,96601.00
2019-03-29T20:28:54.138Z,96604.00
2019-03-29T20:34:23.766Z,96607.00
2019-03-29T20:39:53.355Z,96592.00
2019-03-29T20:45:23.016Z,96597.00
2019-03-29T20:50:52.456Z,96598.00
2019-03-29T20:56:21.793Z,96590.00
2019-03-29T21:01:52.857Z,96596.00
2019-03-29T21:07:22.374Z,96596.00
2019-03-29T21:12:51.851Z,96590.00
2019-03-29T21:18:21.256Z,96592.00
2019-03-29T21:23:50.569Z,96577.00
2019-03-29T21:29:20.195Z,96571.00
2019-03-29T21:34:49.592Z,96577.00
2019-03-29T21:40:19.059Z,96582.00
2019-03-29T21:46:14.793Z,96569.00
2019-03-29T21:51:44.327Z,96571.00
2019-03-29T21:57:13.699Z,96563.00
2019-03-29T22:02:43.188Z,96554.00
2019-03-29T22:08:12.958Z,96554.00
2019-03-29T22:13:42.279Z,96551.00
2019-03-29T22:19:11.697Z,96552.00
2019-03-29T22:24:41.204Z,96539.00
2019-03-29T22:30:12.133Z,96532.00
2019-03-29T22:35:41.516Z,96531.00
2019-03-29T22:41:11.049Z,96524.00
2019-03-29T22:46:40.476Z,96514.00
2019-03-29T22:52:09.875Z,96513.00
2019-03-29T22:57:39.352Z,96517.00
2019-03-29T23:03:09.239Z,96494.00
2019-03-29T23:08:38.595Z,96495.00
2019-03-29T23:14:08.040Z,96490.00
2019-03-29T23:19:37.933Z,96488.00
2019-03-29T23:25:07.626Z,96479.00
2019-03-29T23:30:37.280Z,96486.00
2019-03-29T23:36:06.750Z,96469.00
2019-03-29T23:41:36.463Z,96471.00
2019-03-29T23:47:05.892Z,96466.00
2019-03-29T23:52:35.204Z,96464.00
2019-03-29T23:58:05.001Z,96466.00
